Strona główna
METAR-TAF:

METAR-TAF

Lotnisko :

Port lotniczy Perth

Perth, Australia

Szerokość geograficzna: 31-56S, Długość geograficzna: 115-57E, wysokość: 20 m

Aktualna obserwacja pogody

Raport powstał 39 minut temu, godzina 12:00 UTC
Wiatr 5 kt od północny wschód
Temperatura 12°C
Wilgotność 100%
Ciśnienie 1020 hPa
Widzialność 10 km lub więcej
Mało chmury na wysokości 2700 ft
Rozproszone chmury na wysokości 3600 ft

METAR: YPPH 181200Z 04005KT 9999 FEW027 SCT036 12/12 Q1020 NOSIG

czas: 20:39 (12:39 UTC)

Prognoza

Raport powstał 1 godzina i 32 minut temu, godzina 11:07 UTC
Prognoza ważna od 18 godzina 12 UTC do 19 godzina 18 UTC
Wiatr 10 kt od południowy zachód
Widzialność 10 km lub więcej
Przerywane chmury na wysokości 2500 ft
słaby przelotny opad deszczu
Od 18 godzina 1300 UTC
Wiatr 5 kt od wschód
Widzialność 10 km lub więcej
Rozproszone chmury na wysokości 3000 ft

TAF: YPPH 181107Z 1812/1918 22010KT 9999 -SHRA BKN025 FM181300 08005KT 9999 SCT030

Obserwacja i prognoza pogody dla ponad 4000 lotnisk (raport METAR i TAF).

Dostępne stacje oznaczono żółtymi i czerwonymi punktami na mapie.

Najedź kursorem aby zobaczyć nazwę stacji.

Kliknij aby zobaczyć obserwacje i prognozy pogody.

Aby zmienić mapę: kliknij na zielony przycisk z czarnym krzyżykiem, aby powiększyć; na zielony przycisk z myślnikiem, aby pomniejszyć; na zielone strzałki, aby przejść do map sąsiednich.


METAR-TAF: